Picnic Point, Washington
Current Conditions -  °F | °C
As of 9:53 PM on Sunday 23 Nov 2014 (Local Time) from KTIW Reporting Station
Clear Clear  
Wind Chill: 44°   Ceiling: Unl
Heat Index: 46°   Visibility: 10mi
Dew Point: 42°   Wind: 5mph
Humidity: 86%   Direction: 130°SE
Pressure: 30.31"   Gusts: NA
Location:  47.2986°N, 122.616°W
Report Text: KTIW 240553Z AUTO 13004KT 10SM CLR 08/06 A3031 RMK AO2 SLP265 T00780056 10106 20072 51016
Loading
Personal Weather Stations






























Interactive Weather Map New forecast layout! Learn more

10-Day Weather Forecast

Advertisements
Track Severe Weather on mobile